createdAt,value
2022-08-23T00:00:13.724Z,1014.37
2022-08-23T00:01:15.010Z,1014.36
2022-08-23T00:02:23.705Z,1014.37
2022-08-23T00:03:16.383Z,1014.36
2022-08-23T00:04:18.170Z,1014.35
2022-08-23T00:05:14.571Z,1014.32
2022-08-23T00:06:13.851Z,1014.34
2022-08-23T00:07:15.601Z,1014.35
2022-08-23T00:08:16.171Z,1014.37
2022-08-23T00:09:13.567Z,1014.37
2022-08-23T00:10:15.532Z,1014.35
2022-08-23T00:11:13.737Z,1014.40
2022-08-23T00:12:13.543Z,1014.39
2022-08-23T00:13:13.506Z,1014.36
2022-08-23T00:14:16.396Z,1014.36
2022-08-23T00:15:15.978Z,1014.34
2022-08-23T00:16:14.535Z,1014.34
2022-08-23T00:17:33.587Z,1014.35
2022-08-23T00:18:14.770Z,1014.32
2022-08-23T00:19:13.680Z,1014.31
2022-08-23T00:20:14.716Z,1014.29
2022-08-23T00:21:13.703Z,1014.30
2022-08-23T00:22:13.599Z,1014.29
2022-08-23T00:23:14.116Z,1014.33
2022-08-23T00:24:13.010Z,1014.31
2022-08-23T00:25:14.630Z,1014.29
2022-08-23T00:26:14.357Z,1014.27
2022-08-23T00:27:15.144Z,1014.30
2022-08-23T00:28:14.738Z,1014.31
2022-08-23T00:29:13.126Z,1014.32
2022-08-23T00:30:13.098Z,1014.33
2022-08-23T00:31:12.949Z,1014.33
2022-08-23T00:32:12.869Z,1014.33
2022-08-23T00:33:15.802Z,1014.34
2022-08-23T00:34:15.535Z,1014.35
2022-08-23T00:35:26.660Z,1014.34
2022-08-23T00:36:14.944Z,1014.36
2022-08-23T00:37:15.919Z,1014.31
2022-08-23T00:38:34.487Z,1014.27
2022-08-23T00:39:13.185Z,1014.26
2022-08-23T00:40:13.491Z,1014.24
2022-08-23T00:41:13.594Z,1014.24
2022-08-23T00:42:13.430Z,1014.20
2022-08-23T00:43:13.230Z,1014.21
2022-08-23T00:44:15.360Z,1014.22
2022-08-23T00:45:13.200Z,1014.22
2022-08-23T00:46:15.506Z,1014.20
2022-08-23T00:47:15.242Z,1014.19
2022-08-23T00:48:13.303Z,1014.19
2022-08-23T00:49:13.744Z,1014.18
2022-08-23T00:50:23.357Z,1014.17
2022-08-23T00:51:14.747Z,1014.15
2022-08-23T00:52:13.934Z,1014.15
2022-08-23T00:53:12.920Z,1014.18
2022-08-23T00:54:15.693Z,1014.16
2022-08-23T00:55:13.642Z,1014.13
2022-08-23T00:56:16.553Z,1014.15
2022-08-23T00:57:13.428Z,1014.14
2022-08-23T00:58:13.419Z,1014.13
2022-08-23T00:59:16.627Z,1014.11
2022-08-23T01:00:13.502Z,1014.11
2022-08-23T01:01:13.387Z,1014.09
2022-08-23T01:02:13.531Z,1014.09
2022-08-23T01:03:13.872Z,1014.12
2022-08-23T01:04:18.179Z,1014.14
2022-08-23T01:05:14.861Z,1014.15
2022-08-23T01:06:15.382Z,1014.16
2022-08-23T01:07:13.393Z,1014.15
2022-08-23T01:08:14.697Z,1014.18
2022-08-23T01:09:15.303Z,1014.16
2022-08-23T01:10:13.283Z,1014.19
2022-08-23T01:11:12.818Z,1014.17
2022-08-23T01:12:14.176Z,1014.18
2022-08-23T01:13:14.113Z,1014.21
2022-08-23T01:14:13.010Z,1014.18
2022-08-23T01:15:14.600Z,1014.19
2022-08-23T01:16:13.550Z,1014.17
2022-08-23T01:17:14.059Z,1014.20
2022-08-23T01:18:13.014Z,1014.15
2022-08-23T01:19:12.798Z,1014.10
2022-08-23T01:20:13.695Z,1014.12
2022-08-23T01:21:14.529Z,1014.12
2022-08-23T01:22:13.298Z,1014.13
2022-08-23T01:23:13.403Z,1014.11
2022-08-23T01:24:19.088Z,1014.11
2022-08-23T01:25:14.032Z,1014.13
2022-08-23T01:26:13.016Z,1014.15
2022-08-23T01:27:12.958Z,1014.12
2022-08-23T01:28:14.375Z,1014.15
2022-08-23T01:29:13.218Z,1014.19
2022-08-23T01:30:13.044Z,1014.16
2022-08-23T01:31:13.115Z,1014.17
2022-08-23T01:32:13.641Z,1014.16
2022-08-23T01:33:16.009Z,1014.18
2022-08-23T01:34:14.455Z,1014.20
2022-08-23T01:35:15.946Z,1014.17
2022-08-23T01:36:13.028Z,1014.19
2022-08-23T01:37:14.700Z,1014.18
2022-08-23T01:38:14.112Z,1014.18
2022-08-23T01:39:13.402Z,1014.19
2022-08-23T01:40:13.623Z,1014.22
2022-08-23T01:41:14.427Z,1014.19
2022-08-23T01:42:14.629Z,1014.17
2022-08-23T01:43:15.247Z,1014.19
2022-08-23T01:44:13.316Z,1014.17
2022-08-23T01:45:13.141Z,1014.21
2022-08-23T01:46:14.820Z,1014.19
2022-08-23T01:47:17.113Z,1014.18
2022-08-23T01:48:13.280Z,1014.20
2022-08-23T01:49:13.091Z,1014.18
2022-08-23T01:50:13.216Z,1014.19
2022-08-23T01:51:13.277Z,1014.20
2022-08-23T01:52:13.125Z,1014.23
2022-08-23T01:53:13.246Z,1014.23
2022-08-23T01:54:14.109Z,1014.20
2022-08-23T01:55:14.469Z,1014.20
2022-08-23T01:56:16.258Z,1014.24
2022-08-23T01:57:13.369Z,1014.26
2022-08-23T01:58:13.354Z,1014.22
2022-08-23T01:59:13.274Z,1014.19
2022-08-23T02:00:13.604Z,1014.18
2022-08-23T02:01:13.705Z,1014.20
2022-08-23T02:02:15.366Z,1014.17
2022-08-23T02:03:13.369Z,1014.20
2022-08-23T02:04:13.416Z,1014.18
2022-08-23T02:05:13.392Z,1014.19
2022-08-23T02:06:13.066Z,1014.24
2022-08-23T02:07:12.905Z,1014.19
2022-08-23T02:08:13.947Z,1014.24
2022-08-23T02:09:17.919Z,1014.21
2022-08-23T02:10:13.223Z,1014.24
2022-08-23T02:11:13.207Z,1014.25
2022-08-23T02:12:13.107Z,1014.23
2022-08-23T02:13:14.784Z,1014.25
2022-08-23T02:14:15.178Z,1014.27
2022-08-23T02:15:15.018Z,1014.25
2022-08-23T02:16:15.038Z,1014.29
2022-08-23T02:17:13.055Z,1014.29
2022-08-23T02:18:13.500Z,1014.29
2022-08-23T02:19:12.955Z,1014.30
2022-08-23T02:20:14.305Z,1014.30
2022-08-23T02:21:13.330Z,1014.32
2022-08-23T02:22:13.479Z,1014.32
2022-08-23T02:23:13.326Z,1014.32
2022-08-23T02:24:13.518Z,1014.30
2022-08-23T02:25:13.386Z,1014.32
2022-08-23T02:26:13.672Z,1014.31
2022-08-23T02:27:13.598Z,1014.32
2022-08-23T02:28:13.675Z,1014.32
2022-08-23T02:29:13.650Z,1014.33
2022-08-23T02:30:13.472Z,1014.33
2022-08-23T02:31:13.405Z,1014.31
2022-08-23T02:32:13.100Z,1014.33
2022-08-23T02:33:13.367Z,1014.36
2022-08-23T02:34:13.400Z,1014.34
2022-08-23T02:35:13.344Z,1014.32
2022-08-23T02:36:13.248Z,1014.32
2022-08-23T02:37:15.876Z,1014.29
2022-08-23T02:38:14.021Z,1014.29
2022-08-23T02:39:13.075Z,1014.30
2022-08-23T02:40:14.904Z,1014.30
2022-08-23T02:41:12.761Z,1014.32
2022-08-23T02:42:13.737Z,1014.34
2022-08-23T02:43:13.653Z,1014.29
2022-08-23T02:44:14.591Z,1014.28
2022-08-23T02:45:15.177Z,1014.30
2022-08-23T02:46:13.154Z,1014.28
2022-08-23T02:47:13.306Z,1014.27
2022-08-23T02:48:14.776Z,1014.30
2022-08-23T02:49:13.965Z,1014.33
2022-08-23T02:50:12.997Z,1014.34
2022-08-23T02:51:14.725Z,1014.31
2022-08-23T02:52:13.994Z,1014.35
2022-08-23T02:53:14.568Z,1014.32
2022-08-23T02:54:13.726Z,1014.31
2022-08-23T02:55:13.775Z,1014.35
2022-08-23T02:56:21.564Z,1014.37
2022-08-23T02:57:13.183Z,1014.34
2022-08-23T02:58:13.078Z,1014.40
2022-08-23T02:59:13.081Z,1014.40
2022-08-23T03:00:13.461Z,1014.37
2022-08-23T03:01:14.447Z,1014.39
2022-08-23T03:02:15.179Z,1014.44
2022-08-23T03:03:13.207Z,1014.40
2022-08-23T03:04:14.866Z,1014.39
2022-08-23T03:05:13.684Z,1014.39
2022-08-23T03:06:25.407Z,1014.38
2022-08-23T03:07:13.620Z,1014.35
2022-08-23T03:08:15.135Z,1014.39
2022-08-23T03:09:13.677Z,1014.35
2022-08-23T03:10:13.645Z,1014.34
2022-08-23T03:11:15.053Z,1014.30
2022-08-23T03:12:13.156Z,1014.32
2022-08-23T03:13:13.038Z,1014.33
2022-08-23T03:14:12.958Z,1014.34
2022-08-23T03:15:12.815Z,1014.38
2022-08-23T03:16:13.721Z,1014.38
2022-08-23T03:17:13.593Z,1014.35
2022-08-23T03:18:13.484Z,1014.36
2022-08-23T03:19:13.432Z,1014.34
2022-08-23T03:20:13.308Z,1014.33
2022-08-23T03:21:13.210Z,1014.35
2022-08-23T03:22:13.818Z,1014.37
2022-08-23T03:23:14.900Z,1014.34
2022-08-23T03:24:13.742Z,1014.35
2022-08-23T03:25:13.721Z,1014.37
2022-08-23T03:26:13.413Z,1014.39
2022-08-23T03:27:13.260Z,1014.38
2022-08-23T03:28:13.186Z,1014.35
2022-08-23T03:29:12.990Z,1014.38
2022-08-23T03:30:17.755Z,1014.37
2022-08-23T03:31:15.657Z,1014.39
2022-08-23T03:32:15.430Z,1014.39
2022-08-23T03:33:13.484Z,1014.38
2022-08-23T03:34:13.359Z,1014.38
2022-08-23T03:35:15.204Z,1014.42
2022-08-23T03:36:13.346Z,1014.41
2022-08-23T03:37:13.213Z,1014.41
2022-08-23T03:38:13.055Z,1014.40
2022-08-23T03:39:14.437Z,1014.40
2022-08-23T03:40:13.424Z,1014.41
2022-08-23T03:41:15.315Z,1014.42
2022-08-23T03:42:13.249Z,1014.38
2022-08-23T03:43:13.214Z,1014.39
2022-08-23T03:44:13.080Z,1014.38
2022-08-23T03:45:12.906Z,1014.41
2022-08-23T03:46:12.831Z,1014.42
2022-08-23T03:47:13.589Z,1014.45
2022-08-23T03:48:14.984Z,1014.43
2022-08-23T03:49:13.367Z,1014.43
2022-08-23T03:50:13.278Z,1014.41
2022-08-23T03:51:13.367Z,1014.43
2022-08-23T03:52:13.222Z,1014.41
2022-08-23T03:53:13.052Z,1014.42
2022-08-23T03:54:12.890Z,1014.42
2022-08-23T03:55:12.786Z,1014.43
2022-08-23T03:56:15.289Z,1014.41
2022-08-23T03:57:13.216Z,1014.40
2022-08-23T03:58:13.289Z,1014.44
2022-08-23T03:59:13.157Z,1014.42
2022-08-23T04:00:13.319Z,1014.45
2022-08-23T04:01:13.351Z,1014.48
2022-08-23T04:02:19.575Z,1014.50
2022-08-23T04:03:15.530Z,1014.50
2022-08-23T04:04:13.663Z,1014.48
2022-08-23T04:05:13.639Z,1014.51
2022-08-23T04:06:13.626Z,1014.51
2022-08-23T04:07:13.835Z,1014.53
2022-08-23T04:08:13.779Z,1014.53
2022-08-23T04:09:13.839Z,1014.55
2022-08-23T04:10:13.715Z,1014.58
2022-08-23T04:11:14.592Z,1014.54
2022-08-23T04:12:17.762Z,1014.58
2022-08-23T04:13:12.986Z,1014.59
2022-08-23T04:14:12.815Z,1014.60
2022-08-23T04:15:13.850Z,1014.61
2022-08-23T04:16:13.848Z,1014.62
2022-08-23T04:17:13.836Z,1014.63
2022-08-23T04:18:14.013Z,1014.66
2022-08-23T04:19:12.882Z,1014.66
2022-08-23T04:20:13.651Z,1014.68
2022-08-23T04:21:13.728Z,1014.70
2022-08-23T04:22:13.834Z,1014.71
2022-08-23T04:23:13.982Z,1014.73
2022-08-23T04:24:12.843Z,1014.74
2022-08-23T04:25:34.531Z,1014.75
2022-08-23T04:26:13.459Z,1014.75
2022-08-23T04:27:13.436Z,1014.75
2022-08-23T04:28:16.906Z,1014.80
2022-08-23T04:29:12.837Z,1014.78
2022-08-23T04:30:13.531Z,1014.79
2022-08-23T04:31:13.533Z,1014.79
2022-08-23T04:32:13.431Z,1014.77
2022-08-23T04:33:17.714Z,1014.77
2022-08-23T04:34:15.500Z,1014.79
2022-08-23T04:35:13.083Z,1014.79
2022-08-23T04:36:13.109Z,1014.82
2022-08-23T04:37:13.396Z,1014.80
2022-08-23T04:38:24.201Z,1014.82
2022-08-23T04:39:13.158Z,1014.82
2022-08-23T04:40:13.365Z,1014.83
2022-08-23T04:41:13.256Z,1014.86
2022-08-23T04:42:14.908Z,1014.85
2022-08-23T04:43:13.026Z,1014.87
2022-08-23T04:44:13.182Z,1014.85
2022-08-23T04:45:13.002Z,1014.84
2022-08-23T04:46:14.364Z,1014.87
2022-08-23T04:47:13.429Z,1014.84
2022-08-23T04:48:14.846Z,1014.89
2022-08-23T04:49:13.924Z,1014.89
2022-08-23T04:50:12.775Z,1014.93
2022-08-23T04:51:13.715Z,1014.92
2022-08-23T04:52:18.614Z,1014.91
2022-08-23T04:53:13.879Z,1014.97
2022-08-23T04:54:14.055Z,1014.99
2022-08-23T04:55:13.707Z,1014.97
2022-08-23T04:56:13.991Z,1014.94
2022-08-23T04:57:12.848Z,1014.96
2022-08-23T04:58:15.518Z,1015.00
2022-08-23T04:59:15.395Z,1015.03
2022-08-23T05:00:13.325Z,1015.07
2022-08-23T05:01:13.372Z,1015.06
2022-08-23T05:02:19.960Z,1015.09
2022-08-23T05:03:12.797Z,1015.09
2022-08-23T05:04:13.595Z,1015.10
2022-08-23T05:05:13.507Z,1015.10
2022-08-23T05:06:13.567Z,1015.12
2022-08-23T05:07:13.775Z,1015.11
2022-08-23T05:08:13.563Z,1015.10
2022-08-23T05:09:16.050Z,1015.13
2022-08-23T05:10:13.793Z,1015.13
2022-08-23T05:11:13.755Z,1015.13
2022-08-23T05:12:13.675Z,1015.15
2022-08-23T05:13:13.784Z,1015.12
2022-08-23T05:14:13.942Z,1015.10
2022-08-23T05:15:12.942Z,1015.10
2022-08-23T05:16:13.251Z,1015.14
2022-08-23T05:17:13.208Z,1015.11
2022-08-23T05:18:13.527Z,1015.13
2022-08-23T05:19:13.440Z,1015.18
2022-08-23T05:20:13.360Z,1015.14
2022-08-23T05:21:13.232Z,1015.17
2022-08-23T05:22:14.714Z,1015.19
2022-08-23T05:23:13.612Z,1015.19
2022-08-23T05:24:14.065Z,1015.19
2022-08-23T05:25:13.192Z,1015.21
2022-08-23T05:26:14.634Z,1015.21
2022-08-23T05:27:13.862Z,1015.19
2022-08-23T05:28:12.789Z,1015.21
2022-08-23T05:29:13.847Z,1015.27
2022-08-23T05:30:15.485Z,1015.23
2022-08-23T05:31:13.822Z,1015.24
2022-08-23T05:32:13.806Z,1015.25
2022-08-23T05:33:13.672Z,1015.26
2022-08-23T05:34:13.482Z,1015.25
2022-08-23T05:35:13.601Z,1015.24
2022-08-23T05:36:13.160Z,1015.26
2022-08-23T05:37:14.767Z,1015.25
2022-08-23T05:38:16.673Z,1015.31
2022-08-23T05:39:13.064Z,1015.23
2022-08-23T05:40:13.272Z,1015.32
2022-08-23T05:41:13.568Z,1015.34
2022-08-23T05:42:13.657Z,1015.34
2022-08-23T05:43:13.667Z,1015.34
2022-08-23T05:44:13.762Z,1015.35
2022-08-23T05:45:14.937Z,1015.38
2022-08-23T05:46:13.393Z,1015.40
2022-08-23T05:47:13.603Z,1015.42
2022-08-23T05:48:14.878Z,1015.42
2022-08-23T05:49:13.451Z,1015.42
2022-08-23T05:50:13.995Z,1015.44
2022-08-23T05:51:13.376Z,1015.46
2022-08-23T05:52:13.544Z,1015.41
2022-08-23T05:53:15.722Z,1015.48
2022-08-23T05:54:15.019Z,1015.46
2022-08-23T05:55:15.026Z,1015.48
2022-08-23T05:56:12.910Z,1015.50
2022-08-23T05:57:13.460Z,1015.50
2022-08-23T05:58:13.412Z,1015.47
2022-08-23T05:59:13.379Z,1015.49
2022-08-23T06:00:14.526Z,1015.49
2022-08-23T06:01:14.359Z,1015.52
2022-08-23T06:02:13.622Z,1015.52
2022-08-23T06:03:13.587Z,1015.56
2022-08-23T06:04:15.085Z,1015.54
2022-08-23T06:05:12.941Z,1015.54
2022-08-23T06:06:12.911Z,1015.56
2022-08-23T06:07:14.288Z,1015.57
2022-08-23T06:08:13.110Z,1015.56
2022-08-23T06:09:13.006Z,1015.57
2022-08-23T06:10:15.999Z,1015.61
2022-08-23T06:11:15.735Z,1015.60
2022-08-23T06:12:13.528Z,1015.61
2022-08-23T06:13:15.758Z,1015.65
2022-08-23T06:14:15.268Z,1015.66
2022-08-23T06:15:13.448Z,1015.65
2022-08-23T06:16:18.752Z,1015.65
2022-08-23T06:17:16.275Z,1015.66
2022-08-23T06:18:13.500Z,1015.67
2022-08-23T06:19:13.309Z,1015.65
2022-08-23T06:20:13.332Z,1015.67
2022-08-23T06:21:13.391Z,1015.65
2022-08-23T06:22:13.402Z,1015.66
2022-08-23T06:23:15.156Z,1015.67
2022-08-23T06:24:14.735Z,1015.63
2022-08-23T06:25:13.673Z,1015.67
2022-08-23T06:26:15.064Z,1015.68
2022-08-23T06:27:15.243Z,1015.73
2022-08-23T06:28:15.122Z,1015.76
2022-08-23T06:29:13.108Z,1015.74
2022-08-23T06:30:16.245Z,1015.70
2022-08-23T06:31:17.684Z,1015.72
2022-08-23T06:32:17.601Z,1015.73
2022-08-23T06:33:16.668Z,1015.76
2022-08-23T06:34:17.203Z,1015.76
2022-08-23T06:35:37.594Z,1015.72
2022-08-23T06:36:17.881Z,1015.71
2022-08-23T06:37:13.664Z,1015.78
2022-08-23T06:38:13.582Z,1015.76
2022-08-23T06:39:13.548Z,1015.73
2022-08-23T06:40:18.343Z,1015.77
2022-08-23T06:41:13.510Z,1015.79
2022-08-23T06:42:38.270Z,1015.74
2022-08-23T06:43:13.520Z,1015.78
2022-08-23T06:44:16.254Z,1015.78
2022-08-23T06:45:15.010Z,1015.81
2022-08-23T06:46:13.134Z,1015.79
2022-08-23T06:47:17.297Z,1015.79
2022-08-23T06:48:18.730Z,1015.77
2022-08-23T06:49:16.935Z,1015.77
2022-08-23T06:50:14.455Z,1015.77
2022-08-23T06:51:14.900Z,1015.74
2022-08-23T06:52:13.114Z,1015.76
2022-08-23T06:53:13.251Z,1015.81
2022-08-23T06:54:15.048Z,1015.84
2022-08-23T06:55:13.885Z,1015.86
2022-08-23T06:56:14.582Z,1015.82
2022-08-23T06:57:15.149Z,1015.80
2022-08-23T06:58:15.298Z,1015.85
2022-08-23T06:59:13.209Z,1015.84
2022-08-23T07:00:17.802Z,1015.81
2022-08-23T07:01:34.976Z,1015.83
2022-08-23T07:02:13.584Z,1015.82
2022-08-23T07:03:17.628Z,1015.79
2022-08-23T07:04:15.253Z,1015.81
2022-08-23T07:05:13.464Z,1015.81
2022-08-23T07:06:15.319Z,1015.85
2022-08-23T07:07:14.997Z,1015.83
2022-08-23T07:08:16.319Z,1015.83
2022-08-23T07:09:17.228Z,1015.85
2022-08-23T07:10:13.113Z,1015.87
2022-08-23T07:11:16.267Z,1015.88
2022-08-23T07:12:13.556Z,1015.89
2022-08-23T07:13:18.389Z,1015.91
2022-08-23T07:14:18.355Z,1015.90
2022-08-23T07:15:14.892Z,1015.89
2022-08-23T07:16:16.176Z,1015.93
2022-08-23T07:17:13.144Z,1015.91
2022-08-23T07:18:13.543Z,1015.90
2022-08-23T07:19:18.932Z,1015.95
2022-08-23T07:20:16.044Z,1015.91
2022-08-23T07:21:16.436Z,1015.95
2022-08-23T07:22:15.601Z,1015.95
2022-08-23T07:23:18.590Z,1015.95
2022-08-23T07:24:18.458Z,1015.93
2022-08-23T07:25:15.060Z,1015.97
2022-08-23T07:26:19.138Z,1015.97
2022-08-23T07:27:16.202Z,1015.99
2022-08-23T07:28:15.234Z,1015.98
2022-08-23T07:29:17.856Z,1015.99
2022-08-23T07:30:17.660Z,1015.98
2022-08-23T07:31:16.250Z,1016.01
2022-08-23T07:32:13.160Z,1016.01
2022-08-23T07:33:13.217Z,1016.01
2022-08-23T07:34:15.516Z,1016.00
2022-08-23T07:35:16.579Z,1016.04
2022-08-23T07:36:18.356Z,1016.05
2022-08-23T07:37:15.385Z,1016.12
2022-08-23T07:38:14.058Z,1016.09
2022-08-23T07:39:16.308Z,1016.15
2022-08-23T07:40:20.191Z,1016.14
2022-08-23T07:41:16.386Z,1016.17
2022-08-23T07:42:23.766Z,1016.20
2022-08-23T07:43:18.653Z,1016.22
2022-08-23T07:44:13.678Z,1016.20
2022-08-23T07:45:16.049Z,1016.23
2022-08-23T07:46:17.066Z,1016.21
2022-08-23T07:47:18.351Z,1016.24
2022-08-23T07:48:20.451Z,1016.24
2022-08-23T07:49:19.287Z,1016.24
2022-08-23T07:50:14.765Z,1016.24
2022-08-23T07:51:16.791Z,1016.22
2022-08-23T07:52:19.782Z,1016.25
2022-08-23T07:53:13.591Z,1016.26
2022-08-23T07:54:14.482Z,1016.28
2022-08-23T07:55:16.541Z,1016.28
2022-08-23T07:56:17.743Z,1016.27
2022-08-23T07:57:14.504Z,1016.31
2022-08-23T07:58:15.811Z,1016.35
2022-08-23T07:59:15.220Z,1016.30
2022-08-23T08:00:17.441Z,1016.30
2022-08-23T08:01:15.465Z,1016.29
2022-08-23T08:02:15.699Z,1016.30
2022-08-23T08:03:16.895Z,1016.28
2022-08-23T08:04:13.227Z,1016.25
2022-08-23T08:05:21.469Z,1016.27
2022-08-23T08:06:15.617Z,1016.28
2022-08-23T08:07:20.394Z,1016.28
2022-08-23T08:08:16.723Z,1016.29
2022-08-23T08:09:19.401Z,1016.26
2022-08-23T08:10:16.503Z,1016.33
2022-08-23T08:11:17.930Z,1016.31
2022-08-23T08:12:17.728Z,1016.29
2022-08-23T08:13:17.955Z,1016.32
2022-08-23T08:14:16.239Z,1016.32
2022-08-23T08:15:16.030Z,1016.30
2022-08-23T08:16:13.180Z,1016.28
2022-08-23T08:17:13.584Z,1016.31
2022-08-23T08:18:16.601Z,1016.31
2022-08-23T08:19:19.271Z,1016.35
2022-08-23T08:20:14.980Z,1016.33
2022-08-23T08:21:14.782Z,1016.36
2022-08-23T08:22:15.446Z,1016.39
2022-08-23T08:23:16.528Z,1016.38
2022-08-23T08:24:18.070Z,1016.37
2022-08-23T08:25:18.588Z,1016.39
2022-08-23T08:26:15.811Z,1016.42
2022-08-23T08:27:18.132Z,1016.40
2022-08-23T08:28:17.850Z,1016.43
2022-08-23T08:29:17.843Z,1016.41
2022-08-23T08:30:15.322Z,1016.46
2022-08-23T08:31:14.956Z,1016.47
2022-08-23T08:32:14.329Z,1016.41
2022-08-23T08:33:18.314Z,1016.40
2022-08-23T08:34:18.507Z,1016.43
2022-08-23T08:35:16.585Z,1016.41
2022-08-23T08:36:17.530Z,1016.42
2022-08-23T08:37:18.512Z,1016.46
2022-08-23T08:38:15.106Z,1016.45
2022-08-23T08:39:15.069Z,1016.44
2022-08-23T08:40:15.014Z,1016.44
2022-08-23T08:41:14.102Z,1016.43
2022-08-23T08:42:17.945Z,1016.44
2022-08-23T08:43:15.103Z,1016.47
2022-08-23T08:44:17.053Z,1016.43
2022-08-23T08:45:16.155Z,1016.48
2022-08-23T08:46:15.869Z,1016.43
2022-08-23T08:47:18.372Z,1016.45
2022-08-23T08:48:16.482Z,1016.43
2022-08-23T08:49:19.092Z,1016.42
2022-08-23T08:50:18.572Z,1016.41
2022-08-23T08:51:16.699Z,1016.43
2022-08-23T08:52:15.500Z,1016.40
2022-08-23T08:53:21.358Z,1016.46
2022-08-23T08:54:18.706Z,1016.44
2022-08-23T08:55:16.540Z,1016.46
2022-08-23T08:56:17.621Z,1016.45
2022-08-23T08:57:16.776Z,1016.52
2022-08-23T08:58:13.876Z,1016.50
2022-08-23T08:59:16.062Z,1016.46
2022-08-23T09:00:16.554Z,1016.51
2022-08-23T09:01:15.238Z,1016.49
2022-08-23T09:02:31.958Z,1016.45
2022-08-23T09:03:16.319Z,1016.48
2022-08-23T09:04:16.411Z,1016.52
2022-08-23T09:05:17.217Z,1016.55
2022-08-23T09:06:14.267Z,1016.52
2022-08-23T09:07:19.578Z,1016.48
2022-08-23T09:08:18.791Z,1016.51
2022-08-23T09:09:19.380Z,1016.48
2022-08-23T09:10:21.114Z,1016.50
2022-08-23T09:11:14.790Z,1016.51
2022-08-23T09:12:20.205Z,1016.53
2022-08-23T09:13:17.779Z,1016.51
2022-08-23T09:14:17.523Z,1016.50
2022-08-23T09:15:15.869Z,1016.52
2022-08-23T09:16:16.011Z,1016.49
2022-08-23T09:17:17.114Z,1016.50
2022-08-23T09:18:18.261Z,1016.51
2022-08-23T09:19:17.797Z,1016.49
2022-08-23T09:20:18.522Z,1016.54
2022-08-23T09:21:18.167Z,1016.53
2022-08-23T09:22:17.855Z,1016.50
2022-08-23T09:23:17.236Z,1016.47
2022-08-23T09:24:17.685Z,1016.47
2022-08-23T09:25:16.968Z,1016.51
2022-08-23T09:26:18.849Z,1016.52
2022-08-23T09:27:15.950Z,1016.53
2022-08-23T09:28:17.699Z,1016.52
2022-08-23T09:29:17.502Z,1016.53
2022-08-23T09:30:19.683Z,1016.56
2022-08-23T09:31:20.460Z,1016.54
2022-08-23T09:32:17.846Z,1016.59
2022-08-23T09:33:18.395Z,1016.63
2022-08-23T09:34:17.968Z,1016.62
2022-08-23T09:35:17.641Z,1016.61
2022-08-23T09:36:18.301Z,1016.58
2022-08-23T09:37:19.042Z,1016.60
2022-08-23T09:38:18.306Z,1016.57
2022-08-23T09:39:16.634Z,1016.61
2022-08-23T09:40:18.572Z,1016.56
2022-08-23T09:41:20.015Z,1016.61
2022-08-23T09:42:17.377Z,1016.58
2022-08-23T09:43:16.549Z,1016.59
2022-08-23T09:44:18.164Z,1016.59
2022-08-23T09:45:18.214Z,1016.63
2022-08-23T09:46:18.651Z,1016.60
2022-08-23T09:47:20.166Z,1016.63
2022-08-23T09:48:16.801Z,1016.60
2022-08-23T09:49:19.053Z,1016.61
2022-08-23T09:50:16.590Z,1016.59
2022-08-23T09:51:19.920Z,1016.56
2022-08-23T09:52:22.281Z,1016.62
2022-08-23T09:53:18.300Z,1016.58
2022-08-23T09:54:18.655Z,1016.62
2022-08-23T09:55:19.063Z,1016.59
2022-08-23T09:56:19.148Z,1016.55
2022-08-23T09:57:14.293Z,1016.53
2022-08-23T09:58:17.213Z,1016.52
2022-08-23T09:59:17.307Z,1016.52
2022-08-23T10:00:17.700Z,1016.55
2022-08-23T10:01:19.215Z,1016.53
2022-08-23T10:02:17.195Z,1016.52
2022-08-23T10:03:17.175Z,1016.49
2022-08-23T10:04:19.123Z,1016.52
2022-08-23T10:05:17.847Z,1016.54
2022-08-23T10:06:19.773Z,1016.55
2022-08-23T10:07:18.968Z,1016.48
2022-08-23T10:08:18.979Z,1016.52
2022-08-23T10:09:18.291Z,1016.48
2022-08-23T10:10:17.379Z,1016.48
2022-08-23T10:11:16.537Z,1016.46
2022-08-23T10:12:17.031Z,1016.43
2022-08-23T10:13:20.775Z,1016.47
2022-08-23T10:14:19.906Z,1016.47
2022-08-23T10:15:19.477Z,1016.46
2022-08-23T10:16:19.405Z,1016.48
2022-08-23T10:17:18.143Z,1016.49
2022-08-23T10:18:19.082Z,1016.52
2022-08-23T10:19:19.183Z,1016.50
2022-08-23T10:20:19.166Z,1016.51
2022-08-23T10:21:20.969Z,1016.45
2022-08-23T10:22:18.609Z,1016.47
2022-08-23T10:23:18.230Z,1016.53
2022-08-23T10:24:20.213Z,1016.52
2022-08-23T10:25:19.278Z,1016.53
2022-08-23T10:26:18.065Z,1016.49
2022-08-23T10:27:16.519Z,1016.51
2022-08-23T10:28:18.801Z,1016.48
2022-08-23T10:29:18.671Z,1016.46
2022-08-23T10:30:18.202Z,1016.46
2022-08-23T10:31:17.885Z,1016.46
2022-08-23T10:32:19.573Z,1016.46
2022-08-23T10:33:18.827Z,1016.41
2022-08-23T10:34:15.933Z,1016.46
2022-08-23T10:35:20.539Z,1016.47
2022-08-23T10:36:19.494Z,1016.45
2022-08-23T10:37:19.794Z,1016.45
2022-08-23T10:38:18.494Z,1016.44
2022-08-23T10:39:20.846Z,1016.41
2022-08-23T10:40:16.456Z,1016.39
2022-08-23T10:41:18.286Z,1016.36
2022-08-23T10:42:16.650Z,1016.37
2022-08-23T10:43:18.716Z,1016.40
2022-08-23T10:44:18.288Z,1016.38
2022-08-23T10:45:17.823Z,1016.36
2022-08-23T10:46:16.885Z,1016.35
2022-08-23T10:47:19.048Z,1016.41
2022-08-23T10:48:21.476Z,1016.41
2022-08-23T10:49:18.788Z,1016.37
2022-08-23T10:50:19.651Z,1016.36
2022-08-23T10:51:23.060Z,1016.41
2022-08-23T10:52:16.658Z,1016.37
2022-08-23T10:53:22.640Z,1016.35
2022-08-23T10:54:19.254Z,1016.37
2022-08-23T10:55:19.826Z,1016.32
2022-08-23T10:56:16.719Z,1016.32
2022-08-23T10:57:18.966Z,1016.29
2022-08-23T10:58:17.732Z,1016.32
2022-08-23T10:59:19.680Z,1016.26
2022-08-23T11:00:19.077Z,1016.29
2022-08-23T11:01:18.204Z,1016.31
2022-08-23T11:02:19.249Z,1016.28
2022-08-23T11:03:18.992Z,1016.30
2022-08-23T11:04:19.027Z,1016.34
2022-08-23T11:05:20.567Z,1016.31
2022-08-23T11:06:17.849Z,1016.33
2022-08-23T11:07:18.596Z,1016.28
2022-08-23T11:08:19.427Z,1016.32
2022-08-23T11:09:18.012Z,1016.30
2022-08-23T11:10:18.910Z,1016.28
2022-08-23T11:11:20.191Z,1016.24
2022-08-23T11:12:19.456Z,1016.32
2022-08-23T11:13:19.281Z,1016.27
2022-08-23T11:14:22.506Z,1016.30
2022-08-23T11:15:19.466Z,1016.28
2022-08-23T11:16:19.685Z,1016.33
2022-08-23T11:17:20.314Z,1016.30
2022-08-23T11:18:21.289Z,1016.33
2022-08-23T11:19:18.037Z,1016.31
2022-08-23T11:20:20.253Z,1016.31
2022-08-23T11:21:18.769Z,1016.29
2022-08-23T11:22:18.849Z,1016.29
2022-08-23T11:23:18.645Z,1016.30
2022-08-23T11:24:21.339Z,1016.25
2022-08-23T11:25:20.109Z,1016.27
2022-08-23T11:26:19.964Z,1016.26
2022-08-23T11:27:19.969Z,1016.23
2022-08-23T11:28:19.371Z,1016.21
2022-08-23T11:29:21.824Z,1016.18
2022-08-23T11:30:21.205Z,1016.24
2022-08-23T11:31:21.082Z,1016.21
2022-08-23T11:32:20.240Z,1016.21
2022-08-23T11:33:19.122Z,1016.24
2022-08-23T11:34:20.821Z,1016.26
2022-08-23T11:35:20.679Z,1016.29
2022-08-23T11:36:19.947Z,1016.28
2022-08-23T11:37:20.504Z,1016.25
2022-08-23T11:38:22.643Z,1016.26
2022-08-23T11:39:25.335Z,1016.18
2022-08-23T11:40:21.564Z,1016.17
2022-08-23T11:41:19.593Z,1016.17
2022-08-23T11:42:22.177Z,1016.19
2022-08-23T11:43:18.893Z,1016.20
2022-08-23T11:44:19.250Z,1016.19
2022-08-23T11:45:21.633Z,1016.24
2022-08-23T11:46:19.946Z,1016.22
2022-08-23T11:47:21.391Z,1016.26
2022-08-23T11:48:19.357Z,1016.27
2022-08-23T11:49:19.935Z,1016.23
2022-08-23T11:50:20.524Z,1016.27
2022-08-23T11:51:20.342Z,1016.24
2022-08-23T11:52:20.891Z,1016.20
2022-08-23T11:53:20.571Z,1016.25
2022-08-23T11:54:21.641Z,1016.22
2022-08-23T11:55:20.891Z,1016.15
2022-08-23T11:56:26.693Z,1016.22
2022-08-23T11:57:24.911Z,1016.17
2022-08-23T11:58:20.940Z,1016.09
2022-08-23T11:59:20.405Z,1016.11
2022-08-23T12:00:20.994Z,1016.20
2022-08-23T12:01:20.534Z,1016.16
2022-08-23T12:02:20.816Z,1016.18
2022-08-23T12:03:21.621Z,1016.13
2022-08-23T12:04:21.496Z,1016.06
2022-08-23T12:05:20.988Z,1016.09